Brcko, Bosnia and Herzegovina
Current Conditions -  °F | °C
As of 7:00 PM on Friday 28 Nov 2014 (Local Time) from LQTZ Reporting Station
Haze Haze  
Wind Chill: 45°   Ceiling: Unl
Heat Index: 45°   Visibility: 0.93mi
Dew Point: 45°   Wind: 1mph
Humidity: 100%   Direction: NA
Pressure: 30.03"   Gusts: NA
Location:  44.87°N, 18.81°E
Report Text: LQTZ 281700Z VRB01KT 1500 BR NSC 07/07 Q1017
Loading
Personal Weather Stations






























Interactive Weather Map New forecast layout! Learn more

10-Day Weather Forecast

Advertisements
Track Severe Weather on mobile